Terminal Aerodrome Forecast
Issued by NWS Quad Cities IA IL

Home | Current Version | Previous Version | Text Only | Print | Product List | Glossary On
Versions: 1 2 3 4 5 6 7 8 9 10 11 12 13 14 15 16 17 18 19 20 21 22 23 24 25 26 27 28 29 30 31 32 33 34 35 36
000
FTUS43 KDVN 192304 AAA
TAFDBQ
TAF AMD
KDBQ 192304Z 1923/2018 17007KT P6SM SCT025 BKN035
      TEMPO 2000/2002 35025G50KT 1SM +TSRA BR OVC025CB
     FM200200 19008KT P6SM BKN050
     FM201500 17005KT P6SM SCT050=

USA.gov is the U.S. government's official web portal to all federal, state and local government web resources and services.